Aérodrome :
LOGIN :

S'inscrire | Disclaimer

   EN    FR    IT 

 










Légende :    VFR   VFR Marginal   IFR   IFR Intensif   IFR Très Intensif
Visi : 
Plafond : 
>= 8 km
>= 3000ft
5 à 8 km
1000 à 3000 ft
1500m à 5 km
500 à 1000 ft
800 à 1500m
200 à 500 ft
< 800m
< 200 ft
Symboles :   Orages  Brouillard  Fortes neiges  Fortes précipitations  Vent > 20 kt
SIGMETs :   Divers  Orages  Givrage  Turbulence  Onde Orograph.  Cendres Volcan.






- Altitude de l'aérodrome : 295 ft
- Code IATA : ORN


DAOO - Es senia - Oran

DERNIER METAR :
  • 150400Z 16004KT 8000 BKN020 12/11 Q1018

METARs EXPIRÉS :
  • 150330Z 16004KT 8000 BKN020 12/11 Q1018
  • 150300Z 16004KT 8000 BKN020 12/11 Q1018
  • 150230Z 16005KT 8000 SCT020 11/10 Q1018
  • 150200Z 22005KT 7000 SCT026 12/11 Q1018

TAF TAF DAOO
Valide du 15 à 00h jusqu'au 16 à 00h UTC


142300Z 1500/1524 22006KT 9999 FEW026
PROB40
TEMPO 1500/1508 1500 BR SCT010
BECMG 1512/1514 CAVOK



MET'MAP, la Météo Aéronautique d'un coup d'oeil ! - Copyright ORBIFLY Décembre 2007 - Disclaimer

ORBIFLY MET'MAP TEAM :

Programmation & Développement : Alexandra Zaïnal
Sur une idée originale de : Baudouin d'Aumeries
Assistance à la programmation : Marc-Olivier Méhu
Soutien technique & logistique : Manuel Goepfert

Contact : metmap@orbifly.com




SOURCES & CREDITS :

   NOAA